^^
Saratoga-Weather Station Historical Data
Daily Summary for April 30, 2020 Units:  English    Metric   Both
Daily Weekly Monthly Yearly Custom
  High: Low: Average:
Temperature: 52.5 °F 37.4 °F 44.1 °F
Dew Point: 51.4 °F 35.6 °F 41.9 °F
Humidity: 97% 76% 92%
Wind Speed: 14.1mph 0mph 0.1mph
Wind Gust: 16mph - -
Wind- - West
Pressure: 30 in 29.8 in -
Precipitation: 0.17 in    
Historical Graphs
 
 
Tabular Data for April 30, 2020
Time Temperature Dew Point Pressure Wind Wind Speed Wind Gust Humidity Rainfall Rate (Hourly) solar
00:01 39.4 °F 37.6 °F 30 in Calm     93% 0 in 0 W/m2
00:06 39.2 °F 37.4 °F 30 in Calm     93% 0 in 0 W/m2
00:11 39.2 °F 37.4 °F 30 in Calm     93% 0 in 0 W/m2
00:16 39.2 °F 37.4 °F 30 in Calm   1 mph 93% 0 in 0 W/m2
00:21 39.4 °F 37.6 °F 30 in Calm     93% 0 in 0 W/m2
00:26 39.4 °F 37.6 °F 30 in Calm     93% 0 in 0 W/m2
00:31 39.4 °F 37.6 °F 30 in Calm     93% 0 in 0 W/m2
00:36 39.4 °F 37.6 °F 30 in Calm     93% 0 in 0 W/m2
00:41 39.4 °F 37.6 °F 30 in Calm     93% 0 in 0 W/m2
00:46 39.4 °F 37.6 °F 30 in Calm     93% 0 in 0 W/m2
00:51 39.4 °F 37.6 °F 30 in Calm     93% 0 in 0 W/m2
00:56 39.4 °F 37.6 °F 30 in Calm     93% 0 in 0 W/m2
01:02 39.4 °F 37.6 °F 30 in Calm     93% 0 in 0 W/m2
01:07 39.4 °F 37.6 °F 30 in Calm     93% 0 in 0 W/m2
01:12 39.4 °F 37.6 °F 30 in Calm     93% 0 in 0 W/m2
01:17 39.4 °F 37.6 °F 30 in Calm     93% 0 in 0 W/m2
01:22 39.4 °F 37.6 °F 30 in Calm     93% 0 in 0 W/m2
01:27 39.4 °F 37.6 °F 30 in Calm     93% 0 in 0 W/m2
01:32 39.4 °F 37.6 °F 30 in Calm     93% 0 in 0 W/m2
01:37 39.2 °F 37.4 °F 30 in Calm     93% 0 in 0 W/m2
01:42 39 °F 37.2 °F 30 in Calm     93% 0 in 0 W/m2
01:47 39 °F 37.2 °F 30 in Calm     93% 0 in 0 W/m2
01:52 39 °F 37.2 °F 30 in Calm   1 mph 93% 0 in 0 W/m2
01:57 39 °F 37.2 °F 30 in Calm     93% 0 in 0 W/m2
02:02 39 °F 37.2 °F 30 in Calm   1 mph 93% 0 in 0 W/m2
02:07 39 °F 37.2 °F 30 in Calm     93% 0 in 0 W/m2
02:12 39 °F 37.2 °F 30 in Calm     93% 0 in 0 W/m2
02:17 39 °F 37.2 °F 30 in Calm     93% 0 in 0 W/m2
02:22 39 °F 37.2 °F 30 in Calm     93% 0 in 0 W/m2
02:27 38.8 °F 37 °F 30 in Calm   1 mph 93% 0 in 0 W/m2
02:32 39 °F 37.2 °F 30 in Calm     93% 0 in 0 W/m2
02:37 39 °F 37.2 °F 30 in Calm     93% 0 in 0 W/m2
02:42 39 °F 37.2 °F 30 in Calm     93% 0 in 0 W/m2
02:47 39 °F 37.2 °F 30 in Calm     93% 0 in 0 W/m2
02:52 38.8 °F 37 °F 30 in Calm   1 mph 93% 0 in 0 W/m2
02:57 38.8 °F 37 °F 30 in Calm     93% 0 in 0 W/m2
03:02 38.8 °F 37 °F 30 in Calm     93% 0 in 0 W/m2
03:07 38.8 °F 37 °F 30 in Calm     93% 0 in 0 W/m2
03:12 38.8 °F 37 °F 30 in Calm     93% 0 in 0 W/m2
03:18 38.8 °F 37 °F 30 in Calm     93% 0 in 0 W/m2
03:23 38.7 °F 36.9 °F 30 in Calm     93% 0 in 0 W/m2
03:28 38.7 °F 36.9 °F 30 in Calm     93% 0 in 0 W/m2
03:33 38.5 °F 36.7 °F 30 in Calm     93% 0 in 0 W/m2
03:38 38.5 °F 36.7 °F 30 in Calm     93% 0 in 0 W/m2
03:43 38.3 °F 36.5 °F 30 in Calm     93% 0 in 0 W/m2
03:48 38.3 °F 36.5 °F 30 in Calm     93% 0 in 0 W/m2
03:53 38.5 °F 36.9 °F 30 in Calm     94% 0 in 0 W/m2
03:58 38.5 °F 36.9 °F 30 in Calm     94% 0 in 0 W/m2
04:03 38.5 °F 36.7 °F 30 in Calm     93% 0 in 0 W/m2
04:08 38.5 °F 36.7 °F 30 in Calm     93% 0 in 0 W/m2
04:13 38.3 °F 36.7 °F 30 in Calm     94% 0 in 0 W/m2
04:18 38.5 °F 36.9 °F 30 in Calm     94% 0 in 0 W/m2
04:23 38.1 °F 36.3 °F 30 in Calm     93% 0 in 0 W/m2
04:28 38.1 °F 36.5 °F 30 in Calm     94% 0 in 0 W/m2
04:33 38.3 °F 36.7 °F 30 in Calm     94% 0 in 0 W/m2
04:38 38.3 °F 36.7 °F 30 in Calm     94% 0 in 0 W/m2
04:43 38.3 °F 36.7 °F 30 in Calm     94% 0 in 0 W/m2
04:48 38.5 °F 36.9 °F 30 in Calm     94% 0 in 0 W/m2
04:53 38.5 °F 36.9 °F 30 in Calm     94% 0 in 0 W/m2
04:58 38.7 °F 37 °F 30 in Calm     94% 0 in 0 W/m2
05:03 38.7 °F 37 °F 30 in Calm     94% 0 in 0 W/m2
05:09 38.7 °F 36.9 °F 30 in Calm     93% 0 in 0 W/m2
05:14 38.7 °F 36.9 °F 30 in Calm     93% 0 in 0 W/m2
05:19 38.7 °F 36.9 °F 30 in Calm     93% 0 in 0 W/m2
05:24 38.5 °F 36.7 °F 30 in Calm     93% 0 in 0 W/m2
05:29 38.3 °F 36.5 °F 30 in Calm     93% 0 in 0 W/m2
05:34 37.9 °F 36.1 °F 30 in Calm     93% 0 in 0 W/m2
05:39 37.6 °F 35.8 °F 30 in Calm     93% 0 in 0 W/m2
05:44 37.4 °F 35.6 °F 30 in Calm     93% 0 in 0 W/m2
05:49 37.4 °F 35.8 °F 30 in Calm     94% 0 in 0 W/m2
05:54 37.8 °F 36.1 °F 30 in Calm     94% 0 in 0 W/m2
06:00 37.8 °F 36.1 °F 30 in Calm     94% 0 in 0 W/m2
06:05 37.8 °F 36.5 °F 30 in Calm     95% 0 in 0 W/m2
06:10 37.9 °F 36.7 °F 30 in Calm   1 mph 95% 0 in 0 W/m2
06:15 38.3 °F 37 °F 30 in Calm     95% 0 in 0 W/m2
06:20 38.7 °F 37.4 °F 30 in Calm     95% 0 in 0 W/m2
06:25 39 °F 37.8 °F 30 in Calm     95% 0 in 0 W/m2
06:30 39.4 °F 38.1 °F 30 in Calm     95% 0 in 0 W/m2
06:35 39.4 °F 37.8 °F 30 in Calm     94% 0 in 0 W/m2
06:40 39.6 °F 37.9 °F 30 in Calm     94% 0 in 0 W/m2
06:45 39.7 °F 38.1 °F 30 in Calm     94% 0 in 0 W/m2
06:50 39.9 °F 38.3 °F 30 in Calm     94% 0 in 0 W/m2
06:55 39.9 °F 38.3 °F 30 in Calm     94% 0 in 0 W/m2
07:00 40.1 °F 38.5 °F 30 in Calm     94% 0 in 0 W/m2
07:05 40.1 °F 38.5 °F 30 in Calm     94% 0 in 0 W/m2
07:10 40.3 °F 38.5 °F 30 in Calm     93% 0 in 0 W/m2
07:15 40.3 °F 38.7 °F 30 in Calm     94% 0 in 0 W/m2
07:20 40.3 °F 38.5 °F 30 in Calm     93% 0 in 0 W/m2
07:25 40.3 °F 38.5 °F 30 in Calm     93% 0 in 0 W/m2
07:30 40.3 °F 38.5 °F 30 in Calm     93% 0 in 0 W/m2
07:35 40.3 °F 38.5 °F 30 in Calm     93% 0 in 0 W/m2
07:40 40.3 °F 38.5 °F 30 in Calm     93% 0 in 0 W/m2
07:45 40.1 °F 38.3 °F 30 in Calm     93% 0 in 0 W/m2
07:50 39.7 °F 37.9 °F 30 in Calm     93% 0 in 0 W/m2
07:55 39.4 °F 37.2 °F 30 in Calm     92% 0 in 0 W/m2
08:00 39 °F 37.2 °F 30 in Calm     93% 0 in 0 W/m2
08:05 38.8 °F 37 °F 30 in Calm     93% 0 in 5 W/m2
08:10 38.5 °F 36.7 °F 30 in Calm     93% 0 in 7 W/m2
08:15 38.7 °F 37 °F 30 in Calm     94% 0 in 5 W/m2
08:20 38.7 °F 37 °F 30 in Calm     94% 0 in 9 W/m2
08:25 38.5 °F 36.9 °F 30 in Calm     94% 0 in 12 W/m2
08:30 38.3 °F 36.7 °F 30 in Calm     94% 0 in 18 W/m2
08:35 38.1 °F 36.5 °F 30 in Calm     94% 0 in 23 W/m2
08:40 37.9 °F 36.3 °F 30 in Calm     94% 0 in 28 W/m2
08:45 37.9 °F 36.3 °F 30 in Calm     94% 0 in 30 W/m2
08:50 37.9 °F 36.7 °F 30 in Calm     95% 0 in 35 W/m2
08:55 37.9 °F 36.7 °F 30 in Calm     95% 0 in 42 W/m2
09:00 38.1 °F 36.9 °F 30 in Calm     95% 0 in 46 W/m2
09:05 38.1 °F 36.9 °F 30 in Calm     95% 0 in 47 W/m2
09:10 38.3 °F 37 °F 30 in Calm     95% 0 in 46 W/m2
09:15 38.5 °F 37.2 °F 30 in Calm     95% 0 in 47 W/m2
09:20 38.5 °F 37.2 °F 30 in Calm     95% 0 in 47 W/m2
09:25 38.5 °F 37.2 °F 30 in Calm     95% 0 in 49 W/m2
09:30 38.7 °F 37.4 °F 30 in Calm     95% 0 in 56 W/m2
09:35 38.8 °F 37.8 °F 30 in Calm     96% 0 in 62 W/m2
09:40 39 °F 37.9 °F 30 in Calm     96% 0 in 76 W/m2
09:45 39 °F 37.9 °F 30 in Calm     96% 0 in 81 W/m2
09:50 39.4 °F 38.3 °F 30 in Calm     96% 0 in 88 W/m2
09:55 39.6 °F 38.5 °F 30 in Calm     96% 0 in 91 W/m2
10:00 39.7 °F 38.7 °F 30 in Calm     96% 0 in 100 W/m2
10:05 39.9 °F 38.8 °F 30 in Calm     96% 0 in 98 W/m2
10:10 40.3 °F 39.2 °F 30 in Calm     96% 0 in 97 W/m2
10:15 40.5 °F 39.4 °F 30 in Calm     96% 0 in 98 W/m2
10:20 40.8 °F 39.7 °F 30 in Calm     96% 0 in 93 W/m2
10:26 41.2 °F 39.9 °F 30 in Calm     95% 0 in 91 W/m2
10:31 41.4 °F 40.1 °F 30 in Calm     95% 0 in 97 W/m2
10:36 41.7 °F 40.5 °F 30 in Calm     95% 0 in 109 W/m2
10:41 41.9 °F 40.6 °F 30 in Calm     95% 0 in 114 W/m2
10:46 42.3 °F 40.6 °F 29.9 in Calm     94% 0 in 123 W/m2
10:51 42.6 °F 41 °F 29.9 in Calm     94% 0 in 120 W/m2
10:56 43.2 °F 41.5 °F 29.9 in Calm     94% 0 in 121 W/m2
11:01 43.5 °F 41.7 °F 29.9 in Calm     93% 0 in 127 W/m2
11:06 43.9 °F 41.7 °F 29.9 in Calm     92% 0 in 128 W/m2
11:11 44.2 °F 41.7 °F 29.9 in Calm     91% 0 in 132 W/m2
11:16 44.4 °F 41.9 °F 29.9 in Calm     91% 0 in 134 W/m2
11:21 45 °F 42.3 °F 29.9 in Calm     90% 0 in 142 W/m2
11:26 45.1 °F 42.1 °F 29.9 in Calm     89% 0 in 153 W/m2
11:31 45.3 °F 41.9 °F 29.9 in Calm     88% 0 in 153 W/m2
11:36 45.7 °F 42.1 °F 29.9 in Calm     87% 0 in 151 W/m2
11:41 45.9 °F 42.3 °F 29.9 in Calm     87% 0 in 153 W/m2
11:46 46 °F 42.1 °F 29.9 in Calm     86% 0 in 156 W/m2
11:51 46 °F 41.7 °F 29.9 in Calm     85% 0 in 163 W/m2
11:56 46.2 °F 41.9 °F 29.9 in Calm     85% 0 in 176 W/m2
12:01 46.4 °F 41.9 °F 29.9 in Calm     84% 0 in 181 W/m2
12:06 46.6 °F 41.7 °F 29.9 in Calm     83% 0 in 176 W/m2
12:11 46.8 °F 41.9 °F 29.9 in Calm   1 mph 83% 0 in 174 W/m2
12:16 46.9 °F 42.1 °F 29.9 in Calm     83% 0 in 179 W/m2
12:21 47.1 °F 41.9 °F 29.9 in Calm   1 mph 82% 0 in 185 W/m2
12:26 47.1 °F 41.4 °F 29.9 in Calm     80% 0 in 193 W/m2
12:31 47.1 °F 41.4 °F 29.9 in Calm     80% 0 in 169 W/m2
12:36 47.1 °F 41.4 °F 29.9 in Calm     80% 0 in 151 W/m2
12:41 47.3 °F 41.4 °F 29.9 in Calm     80% 0 in 148 W/m2
12:46 47.3 °F 41.4 °F 29.9 in Calm     80% 0 in 141 W/m2
12:51 47.5 °F 41.5 °F 29.9 in Calm     80% 0 in 137 W/m2
12:56 47.5 °F 41.5 °F 29.9 in Calm     80% 0 in 146 W/m2
13:01 47.5 °F 41.4 °F 29.9 in Calm     79% 0 in 148 W/m2
13:06 47.7 °F 41.5 °F 29.9 in Calm     79% 0 in 146 W/m2
13:11 47.7 °F 41.5 °F 29.9 in Calm     79% 0 in 153 W/m2
13:16 47.7 °F 41.2 °F 29.9 in Calm     78% 0 in 160 W/m2
13:21 47.8 °F 41.4 °F 29.9 in Calm     78% 0 in 155 W/m2
13:27 47.8 °F 41 °F 29.9 in Calm     77% 0 in 148 W/m2
13:32 48 °F 41.5 °F 29.9 in Calm     78% 0 in 153 W/m2
13:37 48.4 °F 41.5 °F 29.9 in Calm     77% 0 in 155 W/m2
13:42 48.4 °F 41.2 °F 29.9 in Calm     76% 0 in 146 W/m2
13:47 48.6 °F 41.7 °F 29.9 in Calm     77% 0 in 123 W/m2
13:52 48.6 °F 41.7 °F 29.9 in Calm     77% 0 in 125 W/m2
13:57 48.7 °F 41.9 °F 29.9 in Calm     77% 0 in 130 W/m2
14:02 48.7 °F 42.3 °F 29.9 in Calm     78% 0 in 137 W/m2
14:07 48.9 °F 42.6 °F 29.9 in Calm     79% 0 in 130 W/m2
14:13 48.9 °F 42.6 °F 29.8 in Calm     79% 0 in 74 W/m2
14:18 48.9 °F 42.6 °F 29.8 in Calm     79% 0 in 72 W/m2
14:23 48.7 °F 42.4 °F 29.8 in Calm     79% 0 in 70 W/m2
14:28 48.7 °F 42.8 °F 29.8 in Calm     80% 0 in 70 W/m2
14:33 48.6 °F 42.6 °F 29.8 in Calm     80% 0 in 76 W/m2
14:38 48.6 °F 43 °F 29.8 in Calm     81% 0 in 67 W/m2
14:43 48.4 °F 42.8 °F 29.8 in Calm     81% 0 in 51 W/m2
14:48 48.4 °F 42.8 °F 29.8 in Calm     81% 0 in 46 W/m2
14:53 48.4 °F 42.8 °F 29.8 in Calm     81% 0 in 53 W/m2
14:58 48.4 °F 43.2 °F 29.8 in Calm     82% 0 in 56 W/m2
15:03 48 °F 43.2 °F 29.8 in Calm     83% 0 in 32 W/m2
15:08 47.7 °F 43.3 °F 29.8 in Calm     85% 0 in 30 W/m2
15:13 47.3 °F 43.3 °F 29.8 in Calm     86% 0 in 26 W/m2
15:18 47.1 °F 43.5 °F 29.8 in Calm     87% 0 in 26 W/m2
15:23 46.9 °F 43.3 °F 29.8 in Calm     87% 0 in 25 W/m2
15:28 46.9 °F 43.5 °F 29.8 in Calm     88% 0 in 28 W/m2
15:33 46.9 °F 43.5 °F 29.8 in Calm     88% 0.01 in 32 W/m2
15:38 46.9 °F 43.5 °F 29.8 in Calm     88% 0.01 in 26 W/m2
15:43 46.9 °F 43.5 °F 29.8 in Calm     88% 0.01 in 30 W/m2
15:48 46.9 °F 43.5 °F 29.8 in Calm     88% 0.01 in 35 W/m2
15:53 46.9 °F 43.9 °F 29.8 in Calm     89% 0.01 in 30 W/m2
15:58 46.9 °F 43.9 °F 29.8 in Calm     89% 0.02 in 23 W/m2
16:03 46.9 °F 43.9 °F 29.8 in Calm     89% 0.02 in 21 W/m2
16:08 46.8 °F 44.1 °F 29.8 in Calm     90% 0.02 in 21 W/m2
16:13 46.8 °F 44.1 °F 29.8 in Calm     90% 0.02 in 18 W/m2
16:18 46.8 °F 44.1 °F 29.8 in Calm     90% 0.02 in 16 W/m2
16:23 46.8 °F 44.2 °F 29.8 in Calm     91% 0.02 in 14 W/m2
16:28 46.8 °F 44.2 °F 29.8 in Calm     91% 0.02 in 12 W/m2
16:34 46.6 °F 44.1 °F 29.8 in Calm     91% 0.01 in 12 W/m2
16:39 46.6 °F 44.1 °F 29.8 in Calm     91% 0.02 in 12 W/m2
16:44 46.6 °F 44.4 °F 29.8 in Calm     92% 0.02 in 11 W/m2
16:49 46.4 °F 44.2 °F 29.8 in Calm     92% 0.02 in 7 W/m2
16:54 46.2 °F 44.2 °F 29.8 in Calm     93% 0.02 in 7 W/m2
16:59 46.2 °F 44.2 °F 29.8 in Calm     93% 0.02 in 7 W/m2
17:04 46.2 °F 44.2 °F 29.8 in Calm     93% 0.02 in 5 W/m2
17:09 46 °F 44.1 °F 29.8 in Calm     93% 0.02 in 0 W/m2
17:14 46 °F 44.4 °F 29.8 in Calm     94% 0.02 in 0 W/m2
17:19 46 °F 44.4 °F 29.8 in Calm     94% 0.02 in 0 W/m2
17:24 46 °F 44.4 °F 29.8 in Calm     94% 0.02 in 0 W/m2
17:29 46 °F 44.4 °F 29.8 in Calm     94% 0.02 in 0 W/m2
17:34 46 °F 44.6 °F 29.8 in Calm     95% 0.02 in 0 W/m2
17:39 46.2 °F 44.8 °F 29.8 in Calm     95% 0.02 in 0 W/m2
17:44 46.2 °F 44.8 °F 29.8 in Calm     95% 0.02 in 0 W/m2
17:49 46.2 °F 44.8 °F 29.8 in Calm   1 mph 95% 0.02 in 0 W/m2
17:54 46.4 °F 45 °F 29.8 in Calm     95% 0.02 in 0 W/m2
17:59 46.4 °F 45 °F 29.8 in Calm   2 mph 95% 0.02 in 0 W/m2
18:04 46.6 °F 45.1 °F 29.8 in Calm     95% 0.02 in 0 W/m2
18:10 46.6 °F 45.1 °F 29.8 in Calm   1 mph 95% 0.02 in 0 W/m2
18:15 46.6 °F 45.1 °F 29.8 in Calm     95% 0.02 in 0 W/m2
18:20 46.6 °F 45.1 °F 29.8 in Calm     95% 0.02 in 0 W/m2
18:25 46.8 °F 45.3 °F 29.8 in Calm     95% 0.02 in 0 W/m2
18:30 46.8 °F 45.3 °F 29.8 in Calm     95% 0.03 in 0 W/m2
18:35 46.8 °F 45.3 °F 29.8 in Calm     95% 0.03 in 0 W/m2
18:40 46.8 °F 45.7 °F 29.8 in Calm     96% 0.02 in 0 W/m2
18:45 46.8 °F 45.7 °F 29.8 in Calm     96% 0.02 in 0 W/m2
18:50 46.8 °F 45.7 °F 29.8 in Calm     96% 0.02 in 0 W/m2
18:55 46.8 °F 45.7 °F 29.8 in Calm     96% 0.02 in 0 W/m2
19:00 46.8 °F 45.7 °F 29.8 in Calm     96% 0.02 in 0 W/m2
19:05 46.8 °F 45.7 °F 29.8 in Calm     96% 0.02 in 0 W/m2
19:10 46.9 °F 45.9 °F 29.8 in Calm     96% 0.02 in 0 W/m2
19:15 47.1 °F 46 °F 29.8 in Calm     96% 0.02 in 0 W/m2
19:20 47.1 °F 46 °F 29.8 in Calm     96% 0.02 in 0 W/m2
19:25 47.3 °F 46.2 °F 29.8 in Calm     96% 0.02 in 0 W/m2
19:31 47.5 °F 46.4 °F 29.8 in Calm     96% 0.02 in 0 W/m2
19:36 47.7 °F 46.6 °F 29.8 in Calm     96% 0.02 in 0 W/m2
19:41 47.7 °F 46.6 °F 29.8 in Calm     96% 0.02 in 0 W/m2
19:46 47.8 °F 46.8 °F 29.8 in Calm     96% 0.02 in 0 W/m2
19:51 48 °F 46.9 °F 29.8 in Calm     96% 0.02 in 0 W/m2
19:56 48.2 °F 47.1 °F 29.8 in Calm     96% 0.02 in 0 W/m2
20:01 48.4 °F 47.3 °F 29.8 in Calm     96% 0.02 in 0 W/m2
20:06 48.6 °F 47.5 °F 29.8 in Calm     96% 0.02 in 0 W/m2
20:11 48.6 °F 47.5 °F 29.8 in Calm     96% 0.02 in 0 W/m2
20:16 48.6 °F 47.5 °F 29.8 in Calm     96% 0.02 in 0 W/m2
20:21 48.7 °F 47.7 °F 29.8 in Calm     96% 0.02 in 0 W/m2
20:26 48.7 °F 47.7 °F 29.8 in Calm     96% 0.03 in 0 W/m2
20:31 48.9 °F 47.8 °F 29.8 in Calm     96% 0.05 in 0 W/m2
20:36 49.1 °F 48 °F 29.8 in Calm     96% 0.05 in 0 W/m2
20:41 49.3 °F 48.2 °F 29.8 in Calm     96% 0.05 in 0 W/m2
20:46 49.6 °F 48.7 °F 29.8 in Calm   1 mph 97% 0.06 in 0 W/m2
20:51 49.8 °F 48.9 °F 29.8 in Calm     97% 0.05 in 0 W/m2
20:56 50.2 °F 49.3 °F 29.8 in Calm   1 mph 97% 0.05 in 0 W/m2
21:01 50.5 °F 49.6 °F 29.8 in Calm     97% 0.05 in 0 W/m2
21:06 50.7 °F 49.8 °F 29.8 in Calm     97% 0.05 in 0 W/m2
21:11 51.1 °F 50.2 °F 29.8 in Calm     97% 0.05 in 0 W/m2
21:16 51.3 °F 50.4 °F 29.8 in Calm     97% 0.05 in 0 W/m2
21:21 51.4 °F 50.5 °F 29.8 in Calm   1 mph 97% 0.04 in 0 W/m2
21:26 51.6 °F 50.7 °F 29.8 in Calm   1 mph 97% 0.03 in 0 W/m2
21:31 51.8 °F 50.9 °F 29.8 in Calm     97% 0.02 in 0 W/m2
21:36 52 °F 51.1 °F 29.8 in Calm   1 mph 97% 0.02 in 0 W/m2
21:41 52.2 °F 51.1 °F 29.8 in Calm     96% 0.02 in 0 W/m2
21:46 52.3 °F 51.3 °F 29.8 in Calm     96% 0.02 in 0 W/m2
21:51 52.3 °F 51.3 °F 29.8 in Calm     96% 0.02 in 0 W/m2
21:56 52.3 °F 51.3 °F 29.8 in Calm     96% 0.02 in 0 W/m2
22:01 52.3 °F 51.3 °F 29.8 in Calm   3 mph 96% 0.02 in 0 W/m2
22:06 52.5 °F 51.4 °F 29.8 in Calm     96% 0.01 in 0 W/m2
22:11 52.5 °F 51.4 °F 29.8 in West 2 mph 2 mph 96% 0.01 in 0 W/m2
22:16 52.5 °F 51.1 °F 29.8 in Calm   14 mph 95% 0.01 in 0 W/m2
22:21 52.5 °F 51.1 °F 29.8 in Calm     95% 0.01 in 0 W/m2
22:26 52.5 °F 51.1 °F 29.8 in Calm   8 mph 95% 0.02 in 0 W/m2
22:31 52.5 °F 51.1 °F 29.8 in Calm   16 mph 95% 0.01 in 0 W/m2
22:36 52.5 °F 51.1 °F 29.8 in Calm     95% 0.01 in 0 W/m2
22:41 52.5 °F 51.1 °F 29.8 in Calm   6 mph 95% 0.01 in 0 W/m2
22:46 52.5 °F 51.1 °F 29.8 in Calm     95% 0.01 in 0 W/m2
22:51 52.5 °F 51.1 °F 29.8 in Calm   1 mph 95% 0.01 in 0 W/m2
22:56 52.5 °F 51.1 °F 29.8 in Calm   4 mph 95% 0.01 in 0 W/m2
23:01 52.5 °F 51.1 °F 29.8 in Calm     95% 0.01 in 0 W/m2
23:06 52.5 °F 51.1 °F 29.8 in Calm     95% 0.01 in 0 W/m2
23:11 52.5 °F 51.1 °F 29.8 in Calm     95% 0.01 in 0 W/m2
23:16 52.5 °F 51.1 °F 29.8 in Calm     95% 0.02 in 0 W/m2
23:21 52.5 °F 51.1 °F 29.8 in Calm     95% 0.02 in 0 W/m2
23:26 52.5 °F 51.1 °F 29.8 in Calm     95% 0.01 in 0 W/m2
23:31 52.5 °F 51.4 °F 29.8 in Calm     96% 0.01 in 0 W/m2
23:36 52.5 °F 51.4 °F 29.8 in Calm     96% 0.01 in 0 W/m2
23:41 52.5 °F 51.4 °F 29.8 in Calm     96% 0.01 in 0 W/m2
23:46 52.5 °F 51.4 °F 29.8 in West 14.1 mph 14 mph 96% 0.01 in 0 W/m2
23:51 52.5 °F 51.4 °F 29.8 in Calm     96% 0.01 in 0 W/m2
23:56 52.5 °F 51.1 °F 29.8 in Calm   15 mph 95% 0.01 in 0 W/m2
Juneau County Weather
Compliments of Weather Underground - 4 mb